sensor_id;sensor_type;location;lat;lon;timestamp;temperature;humidity
71237;DHT22;58984;51.960;5.582;2022-11-04T00:01:46;18.70;54.90
71237;DHT22;58984;51.960;5.582;2022-11-04T00:04:14;18.70;54.80
71237;DHT22;58984;51.960;5.582;2022-11-04T00:06:40;18.70;54.90
71237;DHT22;58984;51.960;5.582;2022-11-04T00:09:11;18.70;54.90
71237;DHT22;58984;51.960;5.582;2022-11-04T00:11:37;18.70;55.00
71237;DHT22;58984;51.960;5.582;2022-11-04T00:14:21;18.70;54.90
71237;DHT22;58984;51.960;5.582;2022-11-04T00:16:47;18.70;54.80
71237;DHT22;58984;51.960;5.582;2022-11-04T00:19:32;18.70;54.90
71237;DHT22;58984;51.960;5.582;2022-11-04T00:22:17;18.70;54.90
71237;DHT22;58984;51.960;5.582;2022-11-04T00:25:02;18.70;54.80
71237;DHT22;58984;51.960;5.582;2022-11-04T00:27:46;18.70;54.90
71237;DHT22;58984;51.960;5.582;2022-11-04T00:30:30;18.70;55.00
71237;DHT22;58984;51.960;5.582;2022-11-04T00:32:56;18.70;55.00
71237;DHT22;58984;51.960;5.582;2022-11-04T00:35:40;18.70;55.70
71237;DHT22;58984;51.960;5.582;2022-11-04T00:38:12;18.70;55.00
71237;DHT22;58984;51.960;5.582;2022-11-04T00:40:37;18.70;55.00
71237;DHT22;58984;51.960;5.582;2022-11-04T00:43:03;18.70;55.00
71237;DHT22;58984;51.960;5.582;2022-11-04T00:45:28;18.70;55.00
71237;DHT22;58984;51.960;5.582;2022-11-04T00:47:54;18.70;55.50
71237;DHT22;58984;51.960;5.582;2022-11-04T00:50:19;18.60;54.60
71237;DHT22;58984;51.960;5.582;2022-11-04T00:52:45;18.60;54.50
71237;DHT22;58984;51.960;5.582;2022-11-04T00:55:10;18.60;54.30
71237;DHT22;58984;51.960;5.582;2022-11-04T00:57:36;18.70;54.30
71237;DHT22;58984;51.960;5.582;2022-11-04T01:00:02;18.60;54.20
71237;DHT22;58984;51.960;5.582;2022-11-04T01:02:28;18.60;54.10
71237;DHT22;58984;51.960;5.582;2022-11-04T01:04:53;18.60;54.00
71237;DHT22;58984;51.960;5.582;2022-11-04T01:07:19;18.60;54.00
71237;DHT22;58984;51.960;5.582;2022-11-04T01:09:44;18.60;53.90
71237;DHT22;58984;51.960;5.582;2022-11-04T01:12:10;18.60;53.90
71237;DHT22;58984;51.960;5.582;2022-11-04T01:14:36;18.60;54.50
71237;DHT22;58984;51.960;5.582;2022-11-04T01:17:01;18.60;53.90
71237;DHT22;58984;51.960;5.582;2022-11-04T01:19:27;18.60;53.80
71237;DHT22;58984;51.960;5.582;2022-11-04T01:21:52;18.50;53.70
71237;DHT22;58984;51.960;5.582;2022-11-04T01:24:18;18.50;53.70
71237;DHT22;58984;51.960;5.582;2022-11-04T01:26:44;18.50;53.60
71237;DHT22;58984;51.960;5.582;2022-11-04T01:29:09;18.50;53.60
71237;DHT22;58984;51.960;5.582;2022-11-04T01:31:35;18.50;53.60
71237;DHT22;58984;51.960;5.582;2022-11-04T01:34:01;18.50;53.60
71237;DHT22;58984;51.960;5.582;2022-11-04T01:36:26;18.40;53.50
71237;DHT22;58984;51.960;5.582;2022-11-04T01:38:54;18.50;53.60
71237;DHT22;58984;51.960;5.582;2022-11-04T01:41:25;18.50;53.50
71237;DHT22;58984;51.960;5.582;2022-11-04T01:43:54;18.40;53.50
71237;DHT22;58984;51.960;5.582;2022-11-04T01:46:58;18.40;53.50
71237;DHT22;58984;51.960;5.582;2022-11-04T01:49:36;18.40;53.70
71237;DHT22;58984;51.960;5.582;2022-11-04T01:52:09;18.30;53.40
71237;DHT22;58984;51.960;5.582;2022-11-04T01:54:36;18.40;53.50
71237;DHT22;58984;51.960;5.582;2022-11-04T01:57:05;18.40;53.50
71237;DHT22;58984;51.960;5.582;2022-11-04T01:59:35;18.40;53.50
71237;DHT22;58984;51.960;5.582;2022-11-04T02:02:02;18.30;53.50
71237;DHT22;58984;51.960;5.582;2022-11-04T02:04:28;18.30;53.50
71237;DHT22;58984;51.960;5.582;2022-11-04T02:06:57;18.30;53.50
71237;DHT22;58984;51.960;5.582;2022-11-04T02:09:26;18.30;53.50
71237;DHT22;58984;51.960;5.582;2022-11-04T02:11:52;18.30;53.50
71237;DHT22;58984;51.960;5.582;2022-11-04T02:14:37;18.30;53.50
71237;DHT22;58984;51.960;5.582;2022-11-04T02:17:58;18.30;53.50
71237;DHT22;58984;51.960;5.582;2022-11-04T02:23:23;18.20;53.40
71237;DHT22;58984;51.960;5.582;2022-11-04T02:26:16;18.20;53.50
71237;DHT22;58984;51.960;5.582;2022-11-04T02:31:50;18.20;53.60
71237;DHT22;58984;51.960;5.582;2022-11-04T02:34:45;18.20;53.50
71237;DHT22;58984;51.960;5.582;2022-11-04T02:40:26;18.20;53.60
71237;DHT22;58984;51.960;5.582;2022-11-04T02:43:08;18.10;53.60
71237;DHT22;58984;51.960;5.582;2022-11-04T02:45:43;18.10;53.50
71237;DHT22;58984;51.960;5.582;2022-11-04T02:54:10;18.10;53.50
71237;DHT22;58984;51.960;5.582;2022-11-04T02:56:41;18.10;53.50
71237;DHT22;58984;51.960;5.582;2022-11-04T02:59:16;18.20;53.50
71237;DHT22;58984;51.960;5.582;2022-11-04T03:01:45;18.10;53.40
71237;DHT22;58984;51.960;5.582;2022-11-04T03:04:21;18.10;53.40
71237;DHT22;58984;51.960;5.582;2022-11-04T03:06:49;18.00;53.40
71237;DHT22;58984;51.960;5.582;2022-11-04T03:09:18;18.10;53.60
71237;DHT22;58984;51.960;5.582;2022-11-04T03:11:49;18.10;53.60
71237;DHT22;58984;51.960;5.582;2022-11-04T03:14:25;18.00;53.60
71237;DHT22;58984;51.960;5.582;2022-11-04T03:16:58;18.00;53.60
71237;DHT22;58984;51.960;5.582;2022-11-04T03:22:16;18.00;53.70
71237;DHT22;58984;51.960;5.582;2022-11-04T03:24:43;18.00;53.60
71237;DHT22;58984;51.960;5.582;2022-11-04T03:32:37;18.00;53.70
71237;DHT22;58984;51.960;5.582;2022-11-04T03:35:06;18.00;53.80
71237;DHT22;58984;51.960;5.582;2022-11-04T03:37:32;18.00;53.80
71237;DHT22;58984;51.960;5.582;2022-11-04T03:39:58;18.00;53.80
71237;DHT22;58984;51.960;5.582;2022-11-04T03:42:25;18.00;53.80
71237;DHT22;58984;51.960;5.582;2022-11-04T03:44:55;18.00;53.90
71237;DHT22;58984;51.960;5.582;2022-11-04T03:47:24;17.90;53.80
71237;DHT22;58984;51.960;5.582;2022-11-04T03:49:54;18.00;53.90
71237;DHT22;58984;51.960;5.582;2022-11-04T03:52:22;18.00;54.00
71237;DHT22;58984;51.960;5.582;2022-11-04T03:54:48;18.00;53.80
71237;DHT22;58984;51.960;5.582;2022-11-04T04:00:34;17.90;53.90
71237;DHT22;58984;51.960;5.582;2022-11-04T04:03:11;17.90;53.70
71237;DHT22;58984;51.960;5.582;2022-11-04T04:05:58;17.90;53.60
71237;DHT22;58984;51.960;5.582;2022-11-04T04:08:47;17.90;53.70
71237;DHT22;58984;51.960;5.582;2022-11-04T04:11:22;17.80;53.60
71237;DHT22;58984;51.960;5.582;2022-11-04T04:13:55;17.90;53.60
71237;DHT22;58984;51.960;5.582;2022-11-04T04:16:36;17.90;53.70
71237;DHT22;58984;51.960;5.582;2022-11-04T04:19:23;17.80;53.60
71237;DHT22;58984;51.960;5.582;2022-11-04T04:21:58;17.80;53.60
71237;DHT22;58984;51.960;5.582;2022-11-04T04:24:29;17.80;53.50
71237;DHT22;58984;51.960;5.582;2022-11-04T04:27:15;17.90;53.50
71237;DHT22;58984;51.960;5.582;2022-11-04T04:30:02;17.80;53.40
71237;DHT22;58984;51.960;5.582;2022-11-04T04:32:31;17.80;53.50
71237;DHT22;58984;51.960;5.582;2022-11-04T04:34:57;17.80;53.50
71237;DHT22;58984;51.960;5.582;2022-11-04T04:37:43;17.80;53.40
71237;DHT22;58984;51.960;5.582;2022-11-04T04:40:13;17.80;53.40
71237;DHT22;58984;51.960;5.582;2022-11-04T04:42:58;17.70;53.40
71237;DHT22;58984;51.960;5.582;2022-11-04T04:45:48;17.80;53.40
71237;DHT22;58984;51.960;5.582;2022-11-04T04:48:15;17.70;53.30
71237;DHT22;58984;51.960;5.582;2022-11-04T04:50:44;17.90;53.40
71237;DHT22;58984;51.960;5.582;2022-11-04T04:53:10;17.80;53.10
71237;DHT22;58984;51.960;5.582;2022-11-04T04:55:36;17.70;53.10
71237;DHT22;58984;51.960;5.582;2022-11-04T04:58:01;17.70;53.10
71237;DHT22;58984;51.960;5.582;2022-11-04T05:00:27;17.70;53.10
71237;DHT22;58984;51.960;5.582;2022-11-04T05:02:53;17.70;53.20
71237;DHT22;58984;51.960;5.582;2022-11-04T05:05:19;17.70;53.20
71237;DHT22;58984;51.960;5.582;2022-11-04T05:07:45;17.70;53.20
71237;DHT22;58984;51.960;5.582;2022-11-04T05:10:12;17.70;53.10
71237;DHT22;58984;51.960;5.582;2022-11-04T05:12:39;17.60;53.10
71237;DHT22;58984;51.960;5.582;2022-11-04T05:15:24;17.60;53.10
71237;DHT22;58984;51.960;5.582;2022-11-04T05:18:00;17.60;53.10
71237;DHT22;58984;51.960;5.582;2022-11-04T05:20:27;17.60;53.10
71237;DHT22;58984;51.960;5.582;2022-11-04T05:22:53;17.60;53.10
71237;DHT22;58984;51.960;5.582;2022-11-04T05:25:19;17.60;53.10
71237;DHT22;58984;51.960;5.582;2022-11-04T05:27:44;17.60;53.00
71237;DHT22;58984;51.960;5.582;2022-11-04T05:30:10;17.60;53.00
71237;DHT22;58984;51.960;5.582;2022-11-04T05:32:36;17.60;53.00
71237;DHT22;58984;51.960;5.582;2022-11-04T05:35:02;17.60;53.00
71237;DHT22;58984;51.960;5.582;2022-11-04T05:37:27;17.60;53.10
71237;DHT22;58984;51.960;5.582;2022-11-04T05:39:53;17.50;53.00
71237;DHT22;58984;51.960;5.582;2022-11-04T05:42:18;17.50;53.00
71237;DHT22;58984;51.960;5.582;2022-11-04T05:44:44;17.60;53.10
71237;DHT22;58984;51.960;5.582;2022-11-04T05:47:09;17.50;53.10
71237;DHT22;58984;51.960;5.582;2022-11-04T05:49:35;17.50;53.10
71237;DHT22;58984;51.960;5.582;2022-11-04T05:52:00;17.50;53.00
71237;DHT22;58984;51.960;5.582;2022-11-04T05:54:26;17.50;53.10
71237;DHT22;58984;51.960;5.582;2022-11-04T05:56:52;17.50;53.10
71237;DHT22;58984;51.960;5.582;2022-11-04T05:59:17;17.50;53.10
71237;DHT22;58984;51.960;5.582;2022-11-04T06:01:43;17.50;53.10
71237;DHT22;58984;51.960;5.582;2022-11-04T06:04:14;17.40;53.00
71237;DHT22;58984;51.960;5.582;2022-11-04T06:06:40;17.40;53.10
71237;DHT22;58984;51.960;5.582;2022-11-04T06:09:06;17.50;53.20
71237;DHT22;58984;51.960;5.582;2022-11-04T06:11:33;17.40;53.10
71237;DHT22;58984;51.960;5.582;2022-11-04T06:13:59;17.40;53.10
71237;DHT22;58984;51.960;5.582;2022-11-04T06:16:24;17.40;53.10
71237;DHT22;58984;51.960;5.582;2022-11-04T06:18:51;17.40;53.10
71237;DHT22;58984;51.960;5.582;2022-11-04T06:21:18;17.40;53.10
71237;DHT22;58984;51.960;5.582;2022-11-04T06:23:46;17.40;53.20
71237;DHT22;58984;51.960;5.582;2022-11-04T06:26:12;17.40;53.20
71237;DHT22;58984;51.960;5.582;2022-11-04T06:28:38;17.40;53.20
71237;DHT22;58984;51.960;5.582;2022-11-04T06:31:06;17.40;53.20
71237;DHT22;58984;51.960;5.582;2022-11-04T06:33:32;17.40;53.20
71237;DHT22;58984;51.960;5.582;2022-11-04T06:35:59;17.40;53.30
71237;DHT22;58984;51.960;5.582;2022-11-04T06:38:27;17.30;53.60
71237;DHT22;58984;51.960;5.582;2022-11-04T06:40:53;17.30;53.80
71237;DHT22;58984;51.960;5.582;2022-11-04T06:43:18;17.30;53.30
71237;DHT22;58984;51.960;5.582;2022-11-04T06:45:51;17.30;53.30
71237;DHT22;58984;51.960;5.582;2022-11-04T06:48:16;17.30;53.20
71237;DHT22;58984;51.960;5.582;2022-11-04T06:50:42;17.30;53.30
71237;DHT22;58984;51.960;5.582;2022-11-04T06:53:07;17.30;53.30
71237;DHT22;58984;51.960;5.582;2022-11-04T06:55:33;17.30;53.30
71237;DHT22;58984;51.960;5.582;2022-11-04T06:57:58;17.30;53.30
71237;DHT22;58984;51.960;5.582;2022-11-04T07:00:24;17.30;53.30
71237;DHT22;58984;51.960;5.582;2022-11-04T07:02:50;17.30;53.30
71237;DHT22;58984;51.960;5.582;2022-11-04T07:05:15;17.30;53.30
71237;DHT22;58984;51.960;5.582;2022-11-04T07:07:41;17.30;53.30
71237;DHT22;58984;51.960;5.582;2022-11-04T07:10:07;17.30;53.30
71237;DHT22;58984;51.960;5.582;2022-11-04T07:12:33;17.30;53.30
71237;DHT22;58984;51.960;5.582;2022-11-04T07:14:58;17.30;53.30
71237;DHT22;58984;51.960;5.582;2022-11-04T07:17:24;17.30;53.30
71237;DHT22;58984;51.960;5.582;2022-11-04T07:19:50;17.30;53.30
71237;DHT22;58984;51.960;5.582;2022-11-04T07:22:15;17.30;53.40
71237;DHT22;58984;51.960;5.582;2022-11-04T07:24:41;17.30;53.40
71237;DHT22;58984;51.960;5.582;2022-11-04T07:27:07;17.20;53.20
71237;DHT22;58984;51.960;5.582;2022-11-04T07:29:33;17.20;53.20
71237;DHT22;58984;51.960;5.582;2022-11-04T07:31:59;17.20;53.20
71237;DHT22;58984;51.960;5.582;2022-11-04T07:34:24;17.20;53.20
71237;DHT22;58984;51.960;5.582;2022-11-04T07:36:50;17.20;53.30
71237;DHT22;58984;51.960;5.582;2022-11-04T07:39:15;17.20;53.20
71237;DHT22;58984;51.960;5.582;2022-11-04T07:41:41;17.20;53.30
71237;DHT22;58984;51.960;5.582;2022-11-04T07:44:10;17.20;53.30
71237;DHT22;58984;51.960;5.582;2022-11-04T07:46:35;17.10;53.20
71237;DHT22;58984;51.960;5.582;2022-11-04T07:49:01;17.20;53.30
71237;DHT22;58984;51.960;5.582;2022-11-04T07:51:27;17.20;53.30
71237;DHT22;58984;51.960;5.582;2022-11-04T07:53:55;17.20;53.40
71237;DHT22;58984;51.960;5.582;2022-11-04T07:56:20;17.10;53.30
71237;DHT22;58984;51.960;5.582;2022-11-04T07:58:48;17.10;53.20
71237;DHT22;58984;51.960;5.582;2022-11-04T08:01:16;17.10;53.30
71237;DHT22;58984;51.960;5.582;2022-11-04T08:03:42;17.10;53.30
71237;DHT22;58984;51.960;5.582;2022-11-04T08:06:11;17.10;53.40
71237;DHT22;58984;51.960;5.582;2022-11-04T08:08:36;17.10;53.40
71237;DHT22;58984;51.960;5.582;2022-11-04T08:11:06;17.10;53.40
71237;DHT22;58984;51.960;5.582;2022-11-04T08:13:33;17.10;53.50
71237;DHT22;58984;51.960;5.582;2022-11-04T08:16:05;17.10;53.60
71237;DHT22;58984;51.960;5.582;2022-11-04T08:18:32;17.10;53.60
71237;DHT22;58984;51.960;5.582;2022-11-04T08:20:58;17.20;53.60
71237;DHT22;58984;51.960;5.582;2022-11-04T08:23:25;17.10;53.50
71237;DHT22;58984;51.960;5.582;2022-11-04T08:25:50;17.10;53.60
71237;DHT22;58984;51.960;5.582;2022-11-04T08:28:16;17.10;53.60
71237;DHT22;58984;51.960;5.582;2022-11-04T08:30:51;17.20;53.70
71237;DHT22;58984;51.960;5.582;2022-11-04T08:33:17;17.00;53.60
71237;DHT22;58984;51.960;5.582;2022-11-04T08:35:43;17.20;53.70
71237;DHT22;58984;51.960;5.582;2022-11-04T08:38:08;17.10;53.60
71237;DHT22;58984;51.960;5.582;2022-11-04T08:40:35;17.10;53.70
71237;DHT22;58984;51.960;5.582;2022-11-04T08:43:01;17.10;53.70
71237;DHT22;58984;51.960;5.582;2022-11-04T08:45:26;17.20;53.80
71237;DHT22;58984;51.960;5.582;2022-11-04T08:47:52;17.10;53.70
71237;DHT22;58984;51.960;5.582;2022-11-04T08:50:18;17.20;53.80
71237;DHT22;58984;51.960;5.582;2022-11-04T08:52:44;17.20;53.80
71237;DHT22;58984;51.960;5.582;2022-11-04T08:55:09;17.20;53.80
71237;DHT22;58984;51.960;5.582;2022-11-04T08:57:35;17.20;53.90
71237;DHT22;58984;51.960;5.582;2022-11-04T09:00:01;17.20;53.90
71237;DHT22;58984;51.960;5.582;2022-11-04T09:02:27;17.20;53.90
71237;DHT22;58984;51.960;5.582;2022-11-04T09:04:53;17.20;54.00
71237;DHT22;58984;51.960;5.582;2022-11-04T09:07:18;17.20;54.00
71237;DHT22;58984;51.960;5.582;2022-11-04T09:09:44;17.20;54.00
71237;DHT22;58984;51.960;5.582;2022-11-04T09:12:10;17.20;54.00
71237;DHT22;58984;51.960;5.582;2022-11-04T09:14:36;17.30;55.00
71237;DHT22;58984;51.960;5.582;2022-11-04T09:17:02;17.30;55.00
71237;DHT22;58984;51.960;5.582;2022-11-04T09:19:27;17.30;54.80
71237;DHT22;58984;51.960;5.582;2022-11-04T09:21:53;17.30;54.70
71237;DHT22;58984;51.960;5.582;2022-11-04T09:24:18;17.40;54.70
71237;DHT22;58984;51.960;5.582;2022-11-04T09:26:44;17.40;54.70
71237;DHT22;58984;51.960;5.582;2022-11-04T09:29:10;17.50;54.70
71237;DHT22;58984;51.960;5.582;2022-11-04T09:31:35;17.50;54.70
71237;DHT22;58984;51.960;5.582;2022-11-04T09:34:01;17.50;54.70
71237;DHT22;58984;51.960;5.582;2022-11-04T09:36:26;17.60;54.80
71237;DHT22;58984;51.960;5.582;2022-11-04T09:38:53;17.60;54.80
71237;DHT22;58984;51.960;5.582;2022-11-04T09:44:19;17.50;54.80
71237;DHT22;58984;51.960;5.582;2022-11-04T09:46:45;17.60;54.80
71237;DHT22;58984;51.960;5.582;2022-11-04T09:49:13;17.70;54.80
71237;DHT22;58984;51.960;5.582;2022-11-04T09:51:42;17.70;54.50
71237;DHT22;58984;51.960;5.582;2022-11-04T09:56:44;17.60;54.70
71237;DHT22;58984;51.960;5.582;2022-11-04T09:59:15;17.60;54.70
71237;DHT22;58984;51.960;5.582;2022-11-04T10:18:27;17.70;54.70
71237;DHT22;58984;51.960;5.582;2022-11-04T10:23:43;17.60;54.70
71237;DHT22;58984;51.960;5.582;2022-11-04T10:29:03;17.60;54.70
71237;DHT22;58984;51.960;5.582;2022-11-04T10:31:30;17.70;54.80
71237;DHT22;58984;51.960;5.582;2022-11-04T10:34:03;17.70;54.80
71237;DHT22;58984;51.960;5.582;2022-11-04T10:36:30;17.70;54.90
71237;DHT22;58984;51.960;5.582;2022-11-04T10:38:56;17.70;54.80
71237;DHT22;58984;51.960;5.582;2022-11-04T10:43:50;17.80;55.00
71237;DHT22;58984;51.960;5.582;2022-11-04T10:46:36;17.80;55.00
71237;DHT22;58984;51.960;5.582;2022-11-04T10:52:06;17.70;55.00
71237;DHT22;58984;51.960;5.582;2022-11-04T10:54:52;17.80;55.00
71237;DHT22;58984;51.960;5.582;2022-11-04T10:57:21;17.70;55.10
71237;DHT22;58984;51.960;5.582;2022-11-04T11:07:43;17.80;55.00
71237;DHT22;58984;51.960;5.582;2022-11-04T11:10:18;17.90;55.00
71237;DHT22;58984;51.960;5.582;2022-11-04T11:12:57;17.80;55.00
71237;DHT22;58984;51.960;5.582;2022-11-04T11:15:34;17.80;55.00
71237;DHT22;58984;51.960;5.582;2022-11-04T11:20:33;17.80;54.90
71237;DHT22;58984;51.960;5.582;2022-11-04T11:23:02;17.90;55.00
71237;DHT22;58984;51.960;5.582;2022-11-04T11:25:34;17.90;55.00
71237;DHT22;58984;51.960;5.582;2022-11-04T11:28:08;17.90;55.10
71237;DHT22;58984;51.960;5.582;2022-11-04T11:33:31;17.90;55.10
71237;DHT22;58984;51.960;5.582;2022-11-04T11:36:04;17.90;55.20
71237;DHT22;58984;51.960;5.582;2022-11-04T11:38:32;17.90;55.10
71237;DHT22;58984;51.960;5.582;2022-11-04T11:41:05;18.00;55.20
71237;DHT22;58984;51.960;5.582;2022-11-04T11:43:33;17.90;55.20
71237;DHT22;58984;51.960;5.582;2022-11-04T11:45:59;18.00;55.30
71237;DHT22;58984;51.960;5.582;2022-11-04T11:48:33;18.00;55.30
71237;DHT22;58984;51.960;5.582;2022-11-04T11:51:03;18.00;55.30
71237;DHT22;58984;51.960;5.582;2022-11-04T11:53:29;18.10;55.40
71237;DHT22;58984;51.960;5.582;2022-11-04T11:58:48;18.00;55.40
71237;DHT22;58984;51.960;5.582;2022-11-04T12:01:33;18.10;55.30
71237;DHT22;58984;51.960;5.582;2022-11-04T12:04:00;18.00;55.20
71237;DHT22;58984;51.960;5.582;2022-11-04T12:20:05;18.20;55.20
71237;DHT22;58984;51.960;5.582;2022-11-04T12:31:14;18.20;55.30
71237;DHT22;58984;51.960;5.582;2022-11-04T12:47:37;18.30;55.10
71237;DHT22;58984;51.960;5.582;2022-11-04T12:53:06;18.30;55.20
71237;DHT22;58984;51.960;5.582;2022-11-04T13:01:47;18.40;55.90
71237;DHT22;58984;51.960;5.582;2022-11-04T13:04:49;18.30;55.00
71237;DHT22;58984;51.960;5.582;2022-11-04T13:07:35;18.40;55.30
71237;DHT22;58984;51.960;5.582;2022-11-04T13:10:33;18.40;55.10
71237;DHT22;58984;51.960;5.582;2022-11-04T13:13:00;18.40;55.10
71237;DHT22;58984;51.960;5.582;2022-11-04T13:15:29;18.50;55.10
71237;DHT22;58984;51.960;5.582;2022-11-04T13:18:04;18.50;55.20
71237;DHT22;58984;51.960;5.582;2022-11-04T13:20:52;18.40;55.20
71237;DHT22;58984;51.960;5.582;2022-11-04T13:24:16;18.40;55.20
71237;DHT22;58984;51.960;5.582;2022-11-04T13:26:15;18.40;55.20
71237;DHT22;58984;51.960;5.582;2022-11-04T13:28:43;18.50;55.10
71237;DHT22;58984;51.960;5.582;2022-11-04T13:31:16;18.50;55.20
71237;DHT22;58984;51.960;5.582;2022-11-04T13:36:23;18.50;55.20
71237;DHT22;58984;51.960;5.582;2022-11-04T13:41:38;18.60;55.20
71237;DHT22;58984;51.960;5.582;2022-11-04T13:44:21;18.50;55.30
71237;DHT22;58984;51.960;5.582;2022-11-04T13:46:51;18.50;55.30
71237;DHT22;58984;51.960;5.582;2022-11-04T13:49:22;18.60;55.30
71237;DHT22;58984;51.960;5.582;2022-11-04T13:52:04;18.60;55.30
71237;DHT22;58984;51.960;5.582;2022-11-04T13:54:43;18.60;55.30
71237;DHT22;58984;51.960;5.582;2022-11-04T13:57:16;18.50;55.20
71237;DHT22;58984;51.960;5.582;2022-11-04T14:02:38;18.50;55.40
71237;DHT22;58984;51.960;5.582;2022-11-04T14:10:43;18.50;55.30
71237;DHT22;58984;51.960;5.582;2022-11-04T14:16:08;18.50;55.50
71237;DHT22;58984;51.960;5.582;2022-11-04T14:18:40;18.60;55.40
71237;DHT22;58984;51.960;5.582;2022-11-04T14:21:15;18.60;55.40
71237;DHT22;58984;51.960;5.582;2022-11-04T14:23:55;18.60;55.40
71237;DHT22;58984;51.960;5.582;2022-11-04T14:26:41;18.50;55.30
71237;DHT22;58984;51.960;5.582;2022-11-04T14:29:08;18.60;55.50
71237;DHT22;58984;51.960;5.582;2022-11-04T14:31:39;18.60;55.40
71237;DHT22;58984;51.960;5.582;2022-11-04T14:34:06;18.60;55.40
71237;DHT22;58984;51.960;5.582;2022-11-04T14:36:34;18.60;55.50
71237;DHT22;58984;51.960;5.582;2022-11-04T14:41:53;18.60;55.50
71237;DHT22;58984;51.960;5.582;2022-11-04T14:44:32;18.50;55.40
71237;DHT22;58984;51.960;5.582;2022-11-04T14:47:23;18.50;55.30
71237;DHT22;58984;51.960;5.582;2022-11-04T14:49:50;18.60;55.50
71237;DHT22;58984;51.960;5.582;2022-11-04T14:57:48;18.50;55.40
71237;DHT22;58984;51.960;5.582;2022-11-04T15:00:34;18.60;55.30
71237;DHT22;58984;51.960;5.582;2022-11-04T15:05:36;18.50;55.30
71237;DHT22;58984;51.960;5.582;2022-11-04T15:08:26;18.60;55.40
71237;DHT22;58984;51.960;5.582;2022-11-04T15:13:32;18.50;55.40
71237;DHT22;58984;51.960;5.582;2022-11-04T15:15:58;18.50;55.40
71237;DHT22;58984;51.960;5.582;2022-11-04T15:18:27;18.50;55.50
71237;DHT22;58984;51.960;5.582;2022-11-04T15:20:58;18.50;55.50
71237;DHT22;58984;51.960;5.582;2022-11-04T15:23:30;18.50;55.50
71237;DHT22;58984;51.960;5.582;2022-11-04T15:25:57;18.40;55.40
71237;DHT22;58984;51.960;5.582;2022-11-04T15:28:28;18.50;55.50
71237;DHT22;58984;51.960;5.582;2022-11-04T15:31:13;18.40;55.50
71237;DHT22;58984;51.960;5.582;2022-11-04T15:33:43;18.40;55.40
71237;DHT22;58984;51.960;5.582;2022-11-04T15:36:46;18.50;55.40
71237;DHT22;58984;51.960;5.582;2022-11-04T15:41:33;18.50;55.40
71237;DHT22;58984;51.960;5.582;2022-11-04T15:44:22;18.40;55.30
71237;DHT22;58984;51.960;5.582;2022-11-04T15:46:59;18.40;55.30
71237;DHT22;58984;51.960;5.582;2022-11-04T15:49:27;18.40;55.30
71237;DHT22;58984;51.960;5.582;2022-11-04T15:52:15;18.40;55.20
71237;DHT22;58984;51.960;5.582;2022-11-04T15:54:44;18.30;55.20
71237;DHT22;58984;51.960;5.582;2022-11-04T15:57:14;18.40;55.10
71237;DHT22;58984;51.960;5.582;2022-11-04T15:59:47;18.30;55.00
71237;DHT22;58984;51.960;5.582;2022-11-04T16:03:16;18.30;54.90
71237;DHT22;58984;51.960;5.582;2022-11-04T16:05:35;18.30;55.00
71237;DHT22;58984;51.960;5.582;2022-11-04T16:10:43;18.20;54.70
71237;DHT22;58984;51.960;5.582;2022-11-04T16:18:43;18.30;54.70
71237;DHT22;58984;51.960;5.582;2022-11-04T16:21:18;18.20;54.70
71237;DHT22;58984;51.960;5.582;2022-11-04T16:24:01;18.30;54.50
71237;DHT22;58984;51.960;5.582;2022-11-04T16:26:37;18.20;54.50
71237;DHT22;58984;51.960;5.582;2022-11-04T16:29:07;18.20;54.40
71237;DHT22;58984;51.960;5.582;2022-11-04T16:31:35;18.20;54.40
71237;DHT22;58984;51.960;5.582;2022-11-04T16:34:01;18.20;55.00
71237;DHT22;58984;51.960;5.582;2022-11-04T16:36:27;18.20;54.40
71237;DHT22;58984;51.960;5.582;2022-11-04T16:38:58;18.20;54.30
71237;DHT22;58984;51.960;5.582;2022-11-04T16:41:26;18.10;54.20
71237;DHT22;58984;51.960;5.582;2022-11-04T16:43:52;18.10;54.20
71237;DHT22;58984;51.960;5.582;2022-11-04T16:46:19;18.10;54.10
71237;DHT22;58984;51.960;5.582;2022-11-04T16:48:47;18.10;54.10
71237;DHT22;58984;51.960;5.582;2022-11-04T16:51:20;18.10;54.10
71237;DHT22;58984;51.960;5.582;2022-11-04T16:53:51;18.00;54.00
71237;DHT22;58984;51.960;5.582;2022-11-04T16:56:18;18.00;54.00
71237;DHT22;58984;51.960;5.582;2022-11-04T16:58:45;18.00;54.70
71237;DHT22;58984;51.960;5.582;2022-11-04T17:01:11;18.00;54.00
71237;DHT22;58984;51.960;5.582;2022-11-04T17:03:42;18.00;54.00
71237;DHT22;58984;51.960;5.582;2022-11-04T17:06:12;18.00;54.00
71237;DHT22;58984;51.960;5.582;2022-11-04T17:08:38;18.00;54.00
71237;DHT22;58984;51.960;5.582;2022-11-04T17:11:04;18.00;54.00
71237;DHT22;58984;51.960;5.582;2022-11-04T17:13:30;18.00;54.00
71237;DHT22;58984;51.960;5.582;2022-11-04T17:15:56;18.00;54.00
71237;DHT22;58984;51.960;5.582;2022-11-04T17:18:21;18.00;54.00
71237;DHT22;58984;51.960;5.582;2022-11-04T17:20:50;18.00;54.00
71237;DHT22;58984;51.960;5.582;2022-11-04T17:23:16;17.90;54.00
71237;DHT22;58984;51.960;5.582;2022-11-04T17:25:43;18.00;54.00
71237;DHT22;58984;51.960;5.582;2022-11-04T17:28:09;17.90;53.90
71237;DHT22;58984;51.960;5.582;2022-11-04T17:30:34;17.90;53.90
71237;DHT22;58984;51.960;5.582;2022-11-04T17:33:00;17.90;53.90
71237;DHT22;58984;51.960;5.582;2022-11-04T17:35:26;17.90;53.90
71237;DHT22;58984;51.960;5.582;2022-11-04T17:37:53;17.90;53.90
71237;DHT22;58984;51.960;5.582;2022-11-04T17:40:20;17.90;53.90
71237;DHT22;58984;51.960;5.582;2022-11-04T17:42:46;17.80;53.90
71237;DHT22;58984;51.960;5.582;2022-11-04T17:45:30;17.90;53.90
71237;DHT22;58984;51.960;5.582;2022-11-04T17:47:56;17.90;53.90
71237;DHT22;58984;51.960;5.582;2022-11-04T17:50:21;17.90;53.90
71237;DHT22;58984;51.960;5.582;2022-11-04T17:52:47;17.80;53.80
71237;DHT22;58984;51.960;5.582;2022-11-04T17:55:13;17.90;53.90
71237;DHT22;58984;51.960;5.582;2022-11-04T17:57:39;17.80;53.80
71237;DHT22;58984;51.960;5.582;2022-11-04T18:00:05;17.80;53.90
71237;DHT22;58984;51.960;5.582;2022-11-04T18:02:32;17.80;53.80
71237;DHT22;58984;51.960;5.582;2022-11-04T18:04:58;17.80;53.80
71237;DHT22;58984;51.960;5.582;2022-11-04T18:07:26;17.80;53.80
71237;DHT22;58984;51.960;5.582;2022-11-04T18:09:52;17.80;53.80
71237;DHT22;58984;51.960;5.582;2022-11-04T18:12:17;17.80;53.80
71237;DHT22;58984;51.960;5.582;2022-11-04T18:15:02;17.80;53.80
71237;DHT22;58984;51.960;5.582;2022-11-04T18:17:28;17.80;53.80
71237;DHT22;58984;51.960;5.582;2022-11-04T18:19:53;17.80;53.70
71237;DHT22;58984;51.960;5.582;2022-11-04T18:22:19;17.80;53.80
71237;DHT22;58984;51.960;5.582;2022-11-04T18:24:45;17.80;53.80
71237;DHT22;58984;51.960;5.582;2022-11-04T18:27:12;17.80;53.70
71237;DHT22;58984;51.960;5.582;2022-11-04T18:29:38;17.70;53.70
71237;DHT22;58984;51.960;5.582;2022-11-04T18:32:04;17.70;53.70